This is the latest recevied weather packets stored in our database for station/object F4THN-13. If no packets are shown the sender has not sent any weather packets the latest 1 day(s).
| Time | Temp. | Humidity | Pressure | Rain* | Wind** | Luminosity | Snow |
|---|---|---|---|---|---|---|---|
| 1778095479 | 13.33° C | 72% | 1011.9 hPa | 0 mm | - | - | - |
| 1778093979 | 13.89° C | 73% | 1011 hPa | 0 mm | - | - | - |
| 1778086478 | 17.78° C | 59% | 1009.8 hPa | 0 mm | - | - | - |
| 1778084978 | 17.78° C | 60% | 1009.8 hPa | 0 mm | - | - | - |
| 1778077477 | 18.33° C | 62% | 1010.7 hPa | 0.51 mm | - | - | - |
| 1778075977 | 17.78° C | 64% | 1010.8 hPa | 0.51 mm | - | - | - |
| 1778068476 | 16.67° C | 74% | 1011.1 hPa | 0 mm | - | - | - |
| 1778066976 | 15° C | 81% | 1011.4 hPa | 0 mm | - | - | - |
| 1778065476 | 13.33° C | 81% | 1011.5 hPa | 0 mm | - | - | - |
| 1778062475 | 13.33° C | 83% | 1011.6 hPa | 0.51 mm | - | - | - |
| 1778059475 | 11.67° C | 86% | 1011.3 hPa | 1.52 mm | - | - | - |
| 1778057975 | 10.56° C | 86% | 1011 hPa | 3.56 mm | - | - | - |
| 1778056475 | 10.56° C | 86% | 1010.7 hPa | 3.05 mm | - | - | - |
| 1778051974 | 12.22° C | 88% | 1009.4 hPa | 1.52 mm | - | - | - |
| 1778050474 | 12.22° C | 88% | 1009.1 hPa | 2.54 mm | - | - | - |
| 1778048974 | 11.67° C | 89% | 1008.7 hPa | 2.03 mm | - | - | - |
| 1778047474 | 11.67° C | 89% | 1008.6 hPa | 1.52 mm | - | - | - |
| 1778045974 | 11.67° C | 89% | 1008.4 hPa | 1.52 mm | - | - | - |
| 1778042973 | 11.67° C | 88% | 1008.2 hPa | 3.05 mm | - | - | - |
| 1778041473 | 11.67° C | 88% | 1007.9 hPa | 3.05 mm | - | - | - |
| 1778039973 | 11.67° C | 88% | 1008.1 hPa | 3.05 mm | - | - | - |
| 1778038473 | 11.67° C | 88% | 1008.3 hPa | 2.54 mm | - | - | - |
| 1778036973 | 11.67° C | 87% | 1008.4 hPa | 1.02 mm | - | - | - |
| 1778033972 | 12.22° C | 85% | 1008.2 hPa | 1.02 mm | - | - | - |
| 1778032472 | 12.22° C | 85% | 1008.6 hPa | 0.51 mm | - | - | - |
* Rain latest hour (hover to see other rain measurements)
** Current wind speed in m/s (hover to see current wind gust speed)